createdAt,value
2022-11-07T00:00:30.990Z,99229.00
2022-11-07T00:02:58.380Z,99240.00
2022-11-07T00:05:25.406Z,99225.00
2022-11-07T00:07:59.281Z,99230.00
2022-11-07T00:10:26.351Z,99234.00
2022-11-07T00:13:00.008Z,99226.00
2022-11-07T00:15:27.033Z,99231.00
2022-11-07T00:18:01.056Z,99218.00
2022-11-07T00:20:28.043Z,99213.00
2022-11-07T00:23:01.023Z,99225.00
2022-11-07T00:25:28.082Z,99220.00
2022-11-07T00:28:02.040Z,99211.00
2022-11-07T00:30:36.444Z,99219.00
2022-11-07T00:33:04.133Z,99223.00
2022-11-07T00:35:38.003Z,99228.00
2022-11-07T00:38:05.011Z,99214.00
2022-11-07T00:40:38.989Z,99217.00
2022-11-07T00:43:05.996Z,99236.00
2022-11-07T00:45:40.112Z,99240.00
2022-11-07T00:48:07.237Z,99247.00
2022-11-07T00:50:41.049Z,99239.00
2022-11-07T00:53:08.031Z,99266.00
2022-11-07T00:55:41.997Z,99266.00
2022-11-07T00:58:13.596Z,99258.00
2022-11-07T01:00:48.084Z,99249.00
2022-11-07T01:03:15.174Z,99256.00
2022-11-07T01:05:49.007Z,99258.00
2022-11-07T01:08:23.040Z,99266.00
2022-11-07T01:10:49.983Z,99237.00
2022-11-07T01:13:23.012Z,99256.00
2022-11-07T01:15:56.978Z,99259.00
2022-11-07T01:18:30.075Z,99262.00
2022-11-07T01:20:57.133Z,99266.00
2022-11-07T01:23:31.012Z,99263.00
2022-11-07T01:25:57.996Z,99240.00
2022-11-07T01:28:31.038Z,99252.00
2022-11-07T01:30:58.034Z,99257.00
2022-11-07T01:33:31.063Z,99277.00
2022-11-07T01:36:06.093Z,99260.00
2022-11-07T01:38:40.086Z,99272.00
2022-11-07T01:41:08.921Z,99264.00
2022-11-07T01:44:07.031Z,99255.00
2022-11-07T01:46:33.979Z,99262.00
2022-11-07T01:49:24.059Z,99264.00
2022-11-07T01:52:07.823Z,99262.00
2022-11-07T01:54:45.040Z,99264.00
2022-11-07T01:57:17.974Z,99238.00
2022-11-07T01:59:51.051Z,99254.00
2022-11-07T02:02:18.255Z,99259.00
2022-11-07T02:04:52.024Z,99250.00
2022-11-07T02:07:23.671Z,99258.00
2022-11-07T02:09:58.079Z,99258.00
2022-11-07T02:12:34.044Z,99249.00
2022-11-07T02:15:01.030Z,99256.00
2022-11-07T02:17:27.982Z,99252.00
2022-11-07T02:20:02.008Z,99247.00
2022-11-07T02:22:59.017Z,99260.00
2022-11-07T02:25:26.025Z,99241.00
2022-11-07T02:28:03.058Z,99235.00
2022-11-07T02:30:31.735Z,99251.00
2022-11-07T02:33:05.050Z,99253.00
2022-11-07T02:35:43.626Z,99255.00
2022-11-07T02:38:39.075Z,99247.00
2022-11-07T02:41:28.047Z,99246.00
2022-11-07T02:44:08.846Z,99244.00
2022-11-07T02:46:42.071Z,99248.00
2022-11-07T02:49:09.072Z,99240.00
2022-11-07T02:51:36.040Z,99242.00
2022-11-07T02:54:10.080Z,99235.00
2022-11-07T02:56:37.139Z,99235.00
2022-11-07T02:59:11.118Z,99234.00
2022-11-07T03:01:38.167Z,99242.00
2022-11-07T03:04:12.086Z,99241.00
2022-11-07T03:06:39.095Z,99235.00
2022-11-07T03:09:13.063Z,99242.00
2022-11-07T03:11:40.049Z,99241.00
2022-11-07T03:14:13.063Z,99243.00
2022-11-07T03:16:40.003Z,99233.00
2022-11-07T03:19:07.052Z,99232.00
2022-11-07T03:21:40.083Z,99233.00
2022-11-07T03:24:07.245Z,99233.00
2022-11-07T03:26:41.055Z,99254.00
2022-11-07T03:29:14.141Z,99256.00
2022-11-07T03:31:41.130Z,99239.00
2022-11-07T03:34:15.106Z,99247.00
2022-11-07T03:36:42.048Z,99234.00
2022-11-07T03:39:16.122Z,99246.00
2022-11-07T03:41:43.185Z,99246.00
2022-11-07T03:44:17.112Z,99238.00
2022-11-07T03:46:44.005Z,99208.00
2022-11-07T03:49:11.033Z,99226.00
2022-11-07T03:51:44.096Z,99231.00
2022-11-07T03:54:11.013Z,99250.00
2022-11-07T03:56:37.965Z,99248.00
2022-11-07T03:59:11.081Z,99244.00
2022-11-07T04:01:44.219Z,99246.00
2022-11-07T04:04:18.118Z,99237.00
2022-11-07T04:06:51.098Z,99256.00
2022-11-07T04:09:18.059Z,99242.00
2022-11-07T04:11:51.146Z,99248.00
2022-11-07T04:14:25.097Z,99229.00
2022-11-07T04:16:52.061Z,99254.00
2022-11-07T04:19:25.099Z,99243.00
2022-11-07T04:21:52.044Z,99246.00
2022-11-07T04:24:25.153Z,99249.00
2022-11-07T04:26:52.073Z,99249.00
2022-11-07T04:29:25.171Z,99249.00
2022-11-07T04:31:52.158Z,99250.00
2022-11-07T04:34:26.103Z,99264.00
2022-11-07T04:36:53.160Z,99257.00
2022-11-07T04:39:27.173Z,99254.00
2022-11-07T04:41:54.333Z,99264.00
2022-11-07T04:44:28.179Z,99257.00
2022-11-07T04:46:55.144Z,99259.00
2022-11-07T04:49:28.131Z,99249.00
2022-11-07T04:51:58.154Z,99263.00
2022-11-07T04:54:31.154Z,99259.00
2022-11-07T04:56:58.105Z,99267.00
2022-11-07T04:59:31.151Z,99263.00
2022-11-07T05:01:58.243Z,99286.00
2022-11-07T05:04:32.100Z,99285.00
2022-11-07T05:06:59.080Z,99276.00
2022-11-07T05:09:32.170Z,99278.00
2022-11-07T05:12:06.143Z,99263.00
2022-11-07T05:14:33.162Z,99281.00
2022-11-07T05:17:06.120Z,99272.00
2022-11-07T05:19:39.914Z,99286.00
2022-11-07T05:22:13.162Z,99281.00
2022-11-07T05:24:40.181Z,99290.00
2022-11-07T05:27:14.175Z,99288.00
2022-11-07T05:29:41.187Z,99285.00
2022-11-07T05:32:14.115Z,99267.00
2022-11-07T05:34:41.090Z,99292.00
2022-11-07T05:37:18.123Z,99300.00
2022-11-07T05:39:54.818Z,99282.00
2022-11-07T05:42:22.245Z,99297.00
2022-11-07T05:44:56.135Z,99291.00
2022-11-07T05:47:23.061Z,99293.00
2022-11-07T05:49:56.157Z,99324.00
2022-11-07T05:52:23.187Z,99322.00
2022-11-07T05:54:56.104Z,99328.00
2022-11-07T05:57:23.045Z,99300.00
2022-11-07T05:59:56.156Z,99329.00
2022-11-07T06:02:23.144Z,99291.00
2022-11-07T06:04:56.106Z,99321.00
2022-11-07T06:07:30.125Z,99330.00
2022-11-07T06:10:03.182Z,99316.00
2022-11-07T06:12:30.175Z,99320.00
2022-11-07T06:15:03.144Z,99332.00
2022-11-07T06:17:36.157Z,99329.00
2022-11-07T06:20:03.466Z,99315.00
2022-11-07T06:22:37.182Z,99340.00
2022-11-07T06:25:11.209Z,99331.00
2022-11-07T06:27:38.208Z,99331.00
2022-11-07T06:30:13.170Z,99312.00
2022-11-07T06:32:46.185Z,99325.00
2022-11-07T06:35:13.373Z,99323.00
2022-11-07T06:37:40.277Z,99343.00
2022-11-07T06:40:14.216Z,99306.00
2022-11-07T06:42:41.176Z,99314.00
2022-11-07T06:45:15.215Z,99312.00
2022-11-07T06:47:42.268Z,99337.00
2022-11-07T06:50:16.173Z,99354.00
2022-11-07T06:52:43.162Z,99357.00
2022-11-07T06:55:16.155Z,99364.00
2022-11-07T06:57:50.208Z,99343.00
2022-11-07T07:00:24.160Z,99360.00
2022-11-07T07:02:58.458Z,99395.00
2022-11-07T07:05:33.155Z,99364.00
2022-11-07T07:08:00.098Z,99378.00
2022-11-07T07:10:33.179Z,99390.00
2022-11-07T07:13:00.768Z,99393.00
2022-11-07T07:15:47.835Z,99390.00
2022-11-07T07:18:24.207Z,99400.00
2022-11-07T07:20:58.188Z,99396.00
2022-11-07T07:23:25.124Z,99415.00
2022-11-07T07:25:58.196Z,99418.00
2022-11-07T07:28:31.181Z,99409.00
2022-11-07T07:31:20.189Z,99411.00
2022-11-07T07:33:54.198Z,99413.00
2022-11-07T07:36:21.297Z,99410.00
2022-11-07T07:38:56.212Z,99411.00
2022-11-07T07:41:23.107Z,99425.00
2022-11-07T07:43:56.218Z,99419.00
2022-11-07T07:46:23.687Z,99447.00
2022-11-07T07:48:57.543Z,99445.00
2022-11-07T07:51:24.537Z,99428.00
2022-11-07T07:53:51.458Z,99440.00
2022-11-07T07:56:25.184Z,99430.00
2022-11-07T07:58:58.203Z,99448.00
2022-11-07T08:01:25.224Z,99444.00
2022-11-07T08:04:01.749Z,99446.00
2022-11-07T08:06:36.169Z,99461.00
2022-11-07T08:09:10.202Z,99460.00
2022-11-07T08:11:48.471Z,99458.00
2022-11-07T08:14:24.326Z,99458.00
2022-11-07T08:16:58.208Z,99457.00
2022-11-07T08:19:25.076Z,99467.00
2022-11-07T08:21:52.015Z,99461.00
2022-11-07T08:24:26.227Z,99459.00
2022-11-07T08:26:53.194Z,99436.00
2022-11-07T08:29:26.219Z,99457.00
2022-11-07T08:31:53.203Z,99460.00
2022-11-07T08:34:26.244Z,99432.00
2022-11-07T08:36:53.413Z,99429.00
2022-11-07T08:39:27.302Z,99443.00
2022-11-07T08:41:54.363Z,99434.00
2022-11-07T08:44:21.894Z,99444.00
2022-11-07T08:46:55.210Z,99452.00
2022-11-07T08:49:22.132Z,99430.00
2022-11-07T08:51:55.220Z,99458.00
2022-11-07T08:54:22.227Z,99467.00
2022-11-07T08:56:56.269Z,99468.00
2022-11-07T08:59:29.275Z,99493.00
2022-11-07T09:02:36.913Z,99466.00
2022-11-07T09:04:50.357Z,99467.00
2022-11-07T09:07:24.265Z,99488.00
2022-11-07T09:09:58.327Z,99481.00
2022-11-07T09:12:25.366Z,99463.00
2022-11-07T09:14:59.321Z,99460.00
2022-11-07T09:17:26.406Z,99459.00
2022-11-07T09:20:00.316Z,99465.00
2022-11-07T09:22:27.291Z,99465.00
2022-11-07T09:25:00.337Z,99463.00
2022-11-07T09:27:27.316Z,99464.00
2022-11-07T09:30:01.349Z,99480.00
2022-11-07T09:32:50.056Z,99499.00
2022-11-07T09:35:17.235Z,99483.00
2022-11-07T09:37:50.264Z,99481.00
2022-11-07T09:41:12.312Z,99519.00
2022-11-07T09:43:58.333Z,99528.00
2022-11-07T09:47:02.278Z,99496.00
2022-11-07T09:49:51.232Z,99513.00
2022-11-07T09:53:01.330Z,99504.00
2022-11-07T09:55:38.426Z,99517.00
2022-11-07T09:58:54.249Z,99518.00
2022-11-07T10:01:21.610Z,99512.00
2022-11-07T10:04:26.489Z,99513.00
2022-11-07T10:07:11.216Z,99524.00
2022-11-07T10:10:22.354Z,99524.00
2022-11-07T10:13:10.011Z,99515.00
2022-11-07T10:16:14.374Z,99504.00
2022-11-07T10:18:56.906Z,99516.00
2022-11-07T10:22:13.277Z,99515.00
2022-11-07T10:24:43.033Z,99527.00
2022-11-07T10:27:18.328Z,99508.00
2022-11-07T10:29:51.140Z,99507.00
2022-11-07T10:32:49.328Z,99510.00
2022-11-07T10:35:33.041Z,99495.00
2022-11-07T10:38:09.383Z,99484.00
2022-11-07T10:40:39.873Z,99499.00
2022-11-07T10:43:25.291Z,99481.00
2022-11-07T10:45:52.599Z,99502.00
2022-11-07T10:48:26.300Z,99506.00
2022-11-07T10:51:00.291Z,99493.00
2022-11-07T10:53:27.380Z,99493.00
2022-11-07T10:56:01.301Z,99490.00
2022-11-07T10:58:36.571Z,99501.00
2022-11-07T11:01:13.415Z,99479.00
2022-11-07T11:03:52.357Z,99481.00
2022-11-07T11:06:19.262Z,99489.00
2022-11-07T11:08:54.326Z,99480.00
2022-11-07T11:11:33.253Z,99480.00
2022-11-07T11:14:20.297Z,99483.00
2022-11-07T11:16:52.865Z,99486.00
2022-11-07T11:19:40.280Z,99474.00
2022-11-07T11:22:15.306Z,99480.00
2022-11-07T11:24:48.384Z,99469.00
2022-11-07T11:27:22.032Z,99465.00
2022-11-07T11:30:01.314Z,99471.00
2022-11-07T11:32:52.301Z,99463.00
2022-11-07T11:35:40.400Z,99465.00
2022-11-07T11:38:30.722Z,99469.00
2022-11-07T11:41:10.999Z,99470.00
2022-11-07T11:44:23.337Z,99457.00
2022-11-07T11:46:58.322Z,99459.00
2022-11-07T11:49:35.468Z,99451.00
2022-11-07T11:52:17.933Z,99462.00
2022-11-07T11:54:52.307Z,99461.00
2022-11-07T11:57:36.381Z,99449.00
2022-11-07T12:00:13.360Z,99461.00
2022-11-07T12:03:27.426Z,99457.00
2022-11-07T12:06:20.850Z,99450.00
2022-11-07T12:09:17.331Z,99452.00
2022-11-07T12:12:00.698Z,99449.00
2022-11-07T12:14:58.004Z,99449.00
2022-11-07T12:18:18.816Z,99451.00
2022-11-07T12:21:43.483Z,99451.00
2022-11-07T12:24:27.091Z,99452.00
2022-11-07T12:27:09.399Z,99448.00
2022-11-07T12:30:12.453Z,99445.00
2022-11-07T12:33:02.801Z,99440.00
2022-11-07T12:35:41.406Z,99436.00
2022-11-07T12:38:58.357Z,99429.00
2022-11-07T12:41:58.454Z,99435.00
2022-11-07T12:44:45.898Z,99427.00
2022-11-07T12:47:26.388Z,99427.00
2022-11-07T12:50:21.371Z,99422.00
2022-11-07T12:53:17.645Z,99423.00
2022-11-07T12:56:02.447Z,99406.00
2022-11-07T12:58:40.418Z,99414.00
2022-11-07T13:01:14.400Z,99393.00
2022-11-07T13:04:34.413Z,99428.00
2022-11-07T13:07:28.511Z,99426.00
2022-11-07T13:10:15.413Z,99399.00
2022-11-07T13:12:58.445Z,99417.00
2022-11-07T13:15:53.752Z,99410.00
2022-11-07T13:18:31.527Z,99398.00
2022-11-07T13:21:10.483Z,99413.00
2022-11-07T13:23:44.472Z,99423.00
2022-11-07T13:26:40.229Z,99417.00
2022-11-07T13:29:07.471Z,99410.00
2022-11-07T13:31:39.566Z,99419.00
2022-11-07T13:34:26.442Z,99410.00
2022-11-07T13:37:05.397Z,99392.00
2022-11-07T13:39:38.471Z,99397.00
2022-11-07T13:42:05.728Z,99412.00
2022-11-07T13:44:45.664Z,99393.00
2022-11-07T13:47:17.065Z,99405.00
2022-11-07T13:49:45.288Z,99391.00
2022-11-07T13:52:30.517Z,99395.00
2022-11-07T13:55:05.849Z,99406.00
2022-11-07T13:57:46.426Z,99398.00
2022-11-07T14:00:17.843Z,99403.00
2022-11-07T14:03:02.532Z,99392.00
2022-11-07T14:05:34.627Z,99408.00
2022-11-07T14:08:25.572Z,99413.00
2022-11-07T14:10:52.908Z,99392.00
2022-11-07T14:13:41.181Z,99405.00
2022-11-07T14:16:29.609Z,99414.00
2022-11-07T14:19:11.455Z,99412.00
2022-11-07T14:21:38.544Z,99418.00
2022-11-07T14:24:30.419Z,99416.00
2022-11-07T14:27:07.530Z,99403.00
2022-11-07T14:30:03.625Z,99416.00
2022-11-07T14:32:37.447Z,99417.00
2022-11-07T14:35:14.428Z,99420.00
2022-11-07T14:37:47.664Z,99420.00
2022-11-07T14:40:14.854Z,99425.00
2022-11-07T14:42:49.448Z,99405.00
2022-11-07T14:45:39.134Z,99394.00
2022-11-07T14:48:13.663Z,99404.00
2022-11-07T14:50:40.772Z,99429.00
2022-11-07T14:53:31.471Z,99427.00
2022-11-07T14:56:02.752Z,99422.00
2022-11-07T14:58:36.506Z,99406.00
2022-11-07T15:01:13.680Z,99427.00
2022-11-07T15:04:16.656Z,99409.00
2022-11-07T15:06:51.461Z,99411.00
2022-11-07T15:09:18.463Z,99395.00
2022-11-07T15:12:04.812Z,99395.00
2022-11-07T15:14:41.481Z,99426.00
2022-11-07T15:17:21.786Z,99387.00
2022-11-07T15:20:06.494Z,99400.00
2022-11-07T15:22:38.265Z,99415.00
2022-11-07T15:25:42.486Z,99432.00
2022-11-07T15:28:25.485Z,99428.00
2022-11-07T15:31:28.119Z,99408.00
2022-11-07T15:34:08.661Z,99427.00
2022-11-07T15:36:42.781Z,99424.00
2022-11-07T15:39:10.391Z,99427.00
2022-11-07T15:41:44.656Z,99414.00
2022-11-07T15:44:12.418Z,99404.00
2022-11-07T15:46:46.085Z,99404.00
2022-11-07T15:49:13.713Z,99425.00
2022-11-07T15:51:47.499Z,99421.00
2022-11-07T15:54:19.048Z,99424.00
2022-11-07T15:56:58.221Z,99444.00
2022-11-07T15:59:25.764Z,99427.00
2022-11-07T16:01:59.570Z,99423.00
2022-11-07T16:04:26.649Z,99435.00
2022-11-07T16:07:00.473Z,99436.00
2022-11-07T16:09:34.536Z,99424.00
2022-11-07T16:12:01.539Z,99417.00
2022-11-07T16:14:44.143Z,99443.00
2022-11-07T16:17:18.785Z,99427.00
2022-11-07T16:19:57.397Z,99459.00
2022-11-07T16:22:33.527Z,99435.00
2022-11-07T16:25:14.895Z,99465.00
2022-11-07T16:27:55.197Z,99462.00
2022-11-07T16:30:29.518Z,99459.00
2022-11-07T16:32:56.640Z,99461.00
2022-11-07T16:35:30.961Z,99450.00
2022-11-07T16:37:59.328Z,99459.00
2022-11-07T16:40:32.531Z,99436.00
2022-11-07T16:42:59.574Z,99437.00
2022-11-07T16:45:32.586Z,99441.00
2022-11-07T16:47:59.822Z,99432.00
2022-11-07T16:50:33.574Z,99431.00
2022-11-07T16:53:00.664Z,99454.00
2022-11-07T16:55:34.494Z,99463.00
2022-11-07T16:58:01.495Z,99469.00
2022-11-07T17:00:34.542Z,99462.00
2022-11-07T17:03:01.647Z,99450.00
2022-11-07T17:05:35.582Z,99481.00
2022-11-07T17:08:02.707Z,99470.00
2022-11-07T17:10:43.546Z,99472.00
2022-11-07T17:13:10.670Z,99468.00
2022-11-07T17:15:44.589Z,99449.00
2022-11-07T17:18:18.847Z,99460.00
2022-11-07T17:20:59.619Z,99481.00
2022-11-07T17:23:33.554Z,99478.00
2022-11-07T17:26:07.626Z,99486.00
2022-11-07T17:28:34.792Z,99476.00
2022-11-07T17:31:08.542Z,99472.00
2022-11-07T17:33:35.532Z,99474.00
2022-11-07T17:36:08.564Z,99460.00
2022-11-07T17:38:35.525Z,99483.00
2022-11-07T17:41:02.626Z,99456.00
2022-11-07T17:43:36.626Z,99479.00
2022-11-07T17:46:03.848Z,99476.00
2022-11-07T17:48:37.583Z,99500.00
2022-11-07T17:51:11.612Z,99508.00
2022-11-07T17:53:38.610Z,99472.00
2022-11-07T17:56:13.578Z,99477.00
2022-11-07T17:58:40.574Z,99488.00
2022-11-07T18:01:27.670Z,99497.00
2022-11-07T18:03:54.900Z,99488.00
2022-11-07T18:06:22.767Z,99472.00
2022-11-07T18:08:58.012Z,99480.00
2022-11-07T18:11:27.571Z,99500.00
2022-11-07T18:14:01.583Z,99489.00
2022-11-07T18:16:35.248Z,99512.00
2022-11-07T18:19:08.602Z,99514.00
2022-11-07T18:21:35.645Z,99522.00
2022-11-07T18:24:09.624Z,99529.00
2022-11-07T18:26:36.645Z,99527.00
2022-11-07T18:29:12.558Z,99522.00
2022-11-07T18:31:39.974Z,99535.00
2022-11-07T18:34:16.605Z,99538.00
2022-11-07T18:36:44.732Z,99533.00
2022-11-07T18:39:24.573Z,99520.00
2022-11-07T18:41:54.192Z,99522.00
2022-11-07T18:44:21.188Z,99516.00
2022-11-07T18:46:54.613Z,99526.00
2022-11-07T18:49:21.591Z,99536.00
2022-11-07T18:51:55.653Z,99541.00
2022-11-07T18:54:22.683Z,99537.00
2022-11-07T18:56:49.796Z,99532.00
2022-11-07T18:59:23.629Z,99523.00
2022-11-07T19:01:50.788Z,99536.00
2022-11-07T19:04:24.601Z,99528.00
2022-11-07T19:06:51.547Z,99536.00
2022-11-07T19:09:24.598Z,99545.00
2022-11-07T19:11:58.595Z,99538.00
2022-11-07T19:14:26.806Z,99549.00
2022-11-07T19:17:00.597Z,99539.00
2022-11-07T19:19:34.642Z,99548.00
2022-11-07T19:22:01.666Z,99553.00
2022-11-07T19:24:28.784Z,99564.00
2022-11-07T19:27:02.661Z,99548.00
2022-11-07T19:29:29.676Z,99535.00
2022-11-07T19:32:03.656Z,99537.00
2022-11-07T19:34:31.138Z,99553.00
2022-11-07T19:37:06.849Z,99554.00
2022-11-07T19:39:37.059Z,99550.00
2022-11-07T19:42:11.633Z,99553.00
2022-11-07T19:44:41.816Z,99560.00
2022-11-07T19:47:17.639Z,99556.00
2022-11-07T19:49:44.557Z,99557.00
2022-11-07T19:52:17.610Z,99564.00
2022-11-07T19:54:44.702Z,99569.00
2022-11-07T19:57:18.669Z,99576.00
2022-11-07T19:59:52.653Z,99547.00
2022-11-07T20:02:33.143Z,99550.00
2022-11-07T20:05:01.828Z,99556.00
2022-11-07T20:07:35.681Z,99550.00
2022-11-07T20:10:02.698Z,99560.00
2022-11-07T20:12:36.664Z,99561.00
2022-11-07T20:15:10.626Z,99563.00
2022-11-07T20:17:43.683Z,99534.00
2022-11-07T20:20:17.668Z,99540.00
2022-11-07T20:22:46.593Z,99578.00
2022-11-07T20:25:20.621Z,99553.00
2022-11-07T20:27:47.738Z,99576.00
2022-11-07T20:30:21.645Z,99573.00
2022-11-07T20:32:55.796Z,99574.00
2022-11-07T20:35:22.828Z,99571.00
2022-11-07T20:37:56.767Z,99581.00
2022-11-07T20:40:30.660Z,99582.00
2022-11-07T20:43:04.711Z,99591.00
2022-11-07T20:45:31.784Z,99569.00
2022-11-07T20:47:58.805Z,99583.00
2022-11-07T20:50:32.757Z,99589.00
2022-11-07T20:53:00.332Z,99586.00
2022-11-07T20:55:33.740Z,99568.00
2022-11-07T20:58:00.729Z,99595.00
2022-11-07T21:00:34.881Z,99593.00
2022-11-07T21:03:01.987Z,99600.00
2022-11-07T21:05:35.889Z,99609.00
2022-11-07T21:08:02.921Z,99592.00
2022-11-07T21:10:36.827Z,99578.00
2022-11-07T21:13:04.202Z,99607.00
2022-11-07T21:15:37.838Z,99622.00
2022-11-07T21:18:05.027Z,99608.00
2022-11-07T21:20:38.779Z,99619.00
2022-11-07T21:23:06.112Z,99610.00
2022-11-07T21:25:49.662Z,99610.00
2022-11-07T21:28:18.234Z,99610.00
2022-11-07T21:31:03.659Z,99607.00
2022-11-07T21:33:30.773Z,99627.00
2022-11-07T21:36:04.697Z,99615.00
2022-11-07T21:38:37.692Z,99617.00
2022-11-07T21:41:08.627Z,99617.00
2022-11-07T21:43:42.703Z,99629.00
2022-11-07T21:46:27.507Z,99600.00
2022-11-07T21:49:04.722Z,99610.00
2022-11-07T21:51:32.669Z,99634.00
2022-11-07T21:54:06.751Z,99626.00
2022-11-07T21:56:42.737Z,99626.00
2022-11-07T21:59:11.024Z,99617.00
2022-11-07T22:01:46.090Z,99623.00
2022-11-07T22:04:13.771Z,99614.00
2022-11-07T22:06:49.715Z,99606.00
2022-11-07T22:09:18.153Z,99616.00
2022-11-07T22:11:51.758Z,99619.00
2022-11-07T22:14:21.118Z,99623.00
2022-11-07T22:16:55.730Z,99604.00
2022-11-07T22:19:22.861Z,99620.00
2022-11-07T22:21:56.745Z,99624.00
2022-11-07T22:24:23.833Z,99606.00
2022-11-07T22:26:57.749Z,99591.00
2022-11-07T22:29:24.818Z,99606.00
2022-11-07T22:31:58.718Z,99603.00
2022-11-07T22:34:25.780Z,99605.00
2022-11-07T22:36:54.527Z,99603.00
2022-11-07T22:39:27.748Z,99601.00
2022-11-07T22:42:01.761Z,99613.00
2022-11-07T22:44:29.153Z,99618.00
2022-11-07T22:46:56.196Z,99629.00
2022-11-07T22:49:29.970Z,99628.00
2022-11-07T22:51:56.934Z,99602.00
2022-11-07T22:54:30.758Z,99620.00
2022-11-07T22:56:57.885Z,99613.00
2022-11-07T22:59:31.711Z,99591.00
2022-11-07T23:01:58.847Z,99601.00
2022-11-07T23:04:33.201Z,99593.00
2022-11-07T23:07:00.266Z,99589.00
2022-11-07T23:09:33.781Z,99600.00
2022-11-07T23:12:00.745Z,99611.00
2022-11-07T23:14:40.793Z,99607.00
2022-11-07T23:17:08.665Z,99615.00
2022-11-07T23:19:41.717Z,99611.00
2022-11-07T23:22:08.729Z,99611.00
2022-11-07T23:24:35.689Z,99610.00
2022-11-07T23:27:08.726Z,99610.00
2022-11-07T23:29:42.684Z,99589.00
2022-11-07T23:32:12.301Z,99602.00
2022-11-07T23:34:45.714Z,99587.00
2022-11-07T23:37:12.698Z,99595.00
2022-11-07T23:39:47.707Z,99599.00
2022-11-07T23:42:21.742Z,99612.00
2022-11-07T23:44:48.686Z,99623.00
2022-11-07T23:47:21.734Z,99623.00
2022-11-07T23:49:48.642Z,99598.00
2022-11-07T23:52:22.678Z,99619.00
2022-11-07T23:54:49.675Z,99626.00
2022-11-07T23:57:22.836Z,99619.00
2022-11-07T23:59:49.737Z,99622.00
